sensor_id;sensor_type;location;lat;lon;timestamp;temperature;humidity
17740;DHT22;8990;33.226;-97.150;2024-02-21T00:00:11;23.20;99.90
17740;DHT22;8990;33.226;-97.150;2024-02-21T00:02:40;23.10;99.90
17740;DHT22;8990;33.226;-97.150;2024-02-21T00:05:09;23.00;99.90
17740;DHT22;8990;33.226;-97.150;2024-02-21T00:07:38;23.00;99.90
17740;DHT22;8990;33.226;-97.150;2024-02-21T00:10:07;22.90;99.90
17740;DHT22;8990;33.226;-97.150;2024-02-21T00:12:37;22.80;99.90
17740;DHT22;8990;33.226;-97.150;2024-02-21T00:15:08;22.70;99.90
17740;DHT22;8990;33.226;-97.150;2024-02-21T00:17:37;22.60;99.90
17740;DHT22;8990;33.226;-97.150;2024-02-21T00:20:07;22.50;99.90
17740;DHT22;8990;33.226;-97.150;2024-02-21T00:22:37;22.40;99.90
17740;DHT22;8990;33.226;-97.150;2024-02-21T00:25:06;22.30;99.90
17740;DHT22;8990;33.226;-97.150;2024-02-21T00:27:35;22.20;99.90
17740;DHT22;8990;33.226;-97.150;2024-02-21T00:30:07;22.10;99.90
17740;DHT22;8990;33.226;-97.150;2024-02-21T00:32:36;22.00;99.90
17740;DHT22;8990;33.226;-97.150;2024-02-21T00:35:05;22.00;99.90
17740;DHT22;8990;33.226;-97.150;2024-02-21T00:37:34;21.90;99.90
17740;DHT22;8990;33.226;-97.150;2024-02-21T00:40:04;21.80;99.90
17740;DHT22;8990;33.226;-97.150;2024-02-21T00:42:33;21.80;99.90
17740;DHT22;8990;33.226;-97.150;2024-02-21T00:45:02;21.70;99.90
17740;DHT22;8990;33.226;-97.150;2024-02-21T00:48:41;21.60;99.90
17740;DHT22;8990;33.226;-97.150;2024-02-21T00:51:10;21.50;99.90
17740;DHT22;8990;33.226;-97.150;2024-02-21T00:53:39;21.50;99.90
17740;DHT22;8990;33.226;-97.150;2024-02-21T00:56:08;21.40;99.90
17740;DHT22;8990;33.226;-97.150;2024-02-21T00:58:37;21.40;99.90
17740;DHT22;8990;33.226;-97.150;2024-02-21T01:01:06;21.40;99.90
17740;DHT22;8990;33.226;-97.150;2024-02-21T01:03:35;21.30;99.90
17740;DHT22;8990;33.226;-97.150;2024-02-21T01:06:05;21.30;99.90
17740;DHT22;8990;33.226;-97.150;2024-02-21T01:08:34;21.20;99.90
17740;DHT22;8990;33.226;-97.150;2024-02-21T01:11:03;21.20;99.90
17740;DHT22;8990;33.226;-97.150;2024-02-21T01:13:33;21.10;99.90
17740;DHT22;8990;33.226;-97.150;2024-02-21T01:16:02;21.10;99.90
17740;DHT22;8990;33.226;-97.150;2024-02-21T01:18:31;21.00;99.90
17740;DHT22;8990;33.226;-97.150;2024-02-21T01:21:00;21.00;99.90
17740;DHT22;8990;33.226;-97.150;2024-02-21T01:23:32;21.00;99.90
17740;DHT22;8990;33.226;-97.150;2024-02-21T01:26:01;20.90;99.90
17740;DHT22;8990;33.226;-97.150;2024-02-21T01:28:30;20.90;99.90
17740;DHT22;8990;33.226;-97.150;2024-02-21T01:30:59;20.90;99.90
17740;DHT22;8990;33.226;-97.150;2024-02-21T01:33:28;20.80;99.90
17740;DHT22;8990;33.226;-97.150;2024-02-21T01:36:01;20.80;99.90
17740;DHT22;8990;33.226;-97.150;2024-02-21T01:38:32;20.70;99.90
17740;DHT22;8990;33.226;-97.150;2024-02-21T01:41:01;20.60;99.90
17740;DHT22;8990;33.226;-97.150;2024-02-21T01:43:30;20.60;99.90
17740;DHT22;8990;33.226;-97.150;2024-02-21T01:45:59;20.60;99.90
17740;DHT22;8990;33.226;-97.150;2024-02-21T01:48:28;20.60;99.90
17740;DHT22;8990;33.226;-97.150;2024-02-21T01:50:57;20.50;99.90
17740;DHT22;8990;33.226;-97.150;2024-02-21T01:53:32;20.50;99.90
17740;DHT22;8990;33.226;-97.150;2024-02-21T01:56:04;20.50;99.90
17740;DHT22;8990;33.226;-97.150;2024-02-21T01:58:35;20.50;99.90
17740;DHT22;8990;33.226;-97.150;2024-02-21T02:01:05;20.40;99.90
17740;DHT22;8990;33.226;-97.150;2024-02-21T02:03:35;20.40;99.90
17740;DHT22;8990;33.226;-97.150;2024-02-21T02:06:05;20.30;99.90
17740;DHT22;8990;33.226;-97.150;2024-02-21T02:08:37;20.30;99.90
17740;DHT22;8990;33.226;-97.150;2024-02-21T02:11:06;20.30;99.90
17740;DHT22;8990;33.226;-97.150;2024-02-21T02:13:35;20.20;99.90
17740;DHT22;8990;33.226;-97.150;2024-02-21T02:16:05;20.20;99.90
17740;DHT22;8990;33.226;-97.150;2024-02-21T02:18:33;20.20;99.90
17740;DHT22;8990;33.226;-97.150;2024-02-21T02:21:04;20.20;99.90
17740;DHT22;8990;33.226;-97.150;2024-02-21T02:23:35;20.10;99.90
17740;DHT22;8990;33.226;-97.150;2024-02-21T02:26:04;20.00;99.90
17740;DHT22;8990;33.226;-97.150;2024-02-21T02:28:34;20.00;99.90
17740;DHT22;8990;33.226;-97.150;2024-02-21T02:31:04;19.90;99.90
17740;DHT22;8990;33.226;-97.150;2024-02-21T02:33:33;19.90;99.90
17740;DHT22;8990;33.226;-97.150;2024-02-21T02:36:02;19.80;99.90
17740;DHT22;8990;33.226;-97.150;2024-02-21T02:38:30;19.80;99.90
17740;DHT22;8990;33.226;-97.150;2024-02-21T02:41:01;19.80;99.90
17740;DHT22;8990;33.226;-97.150;2024-02-21T02:43:30;19.70;99.90
17740;DHT22;8990;33.226;-97.150;2024-02-21T02:45:59;19.70;99.90
17740;DHT22;8990;33.226;-97.150;2024-02-21T02:48:28;19.60;99.90
17740;DHT22;8990;33.226;-97.150;2024-02-21T02:50:57;19.60;99.90
17740;DHT22;8990;33.226;-97.150;2024-02-21T02:53:26;19.50;99.90
17740;DHT22;8990;33.226;-97.150;2024-02-21T02:55:55;19.50;99.90
17740;DHT22;8990;33.226;-97.150;2024-02-21T02:58:26;19.50;99.90
17740;DHT22;8990;33.226;-97.150;2024-02-21T03:00:55;19.40;99.90
17740;DHT22;8990;33.226;-97.150;2024-02-21T03:03:24;19.40;99.90
17740;DHT22;8990;33.226;-97.150;2024-02-21T03:05:52;19.40;99.90
17740;DHT22;8990;33.226;-97.150;2024-02-21T03:08:21;19.40;99.90
17740;DHT22;8990;33.226;-97.150;2024-02-21T03:10:50;19.30;99.90
17740;DHT22;8990;33.226;-97.150;2024-02-21T03:13:19;19.30;99.90
17740;DHT22;8990;33.226;-97.150;2024-02-21T03:15:51;19.20;99.90
17740;DHT22;8990;33.226;-97.150;2024-02-21T03:18:20;19.30;99.90
17740;DHT22;8990;33.226;-97.150;2024-02-21T03:20:49;19.20;99.90
17740;DHT22;8990;33.226;-97.150;2024-02-21T03:23:18;19.30;99.90
17740;DHT22;8990;33.226;-97.150;2024-02-21T03:25:47;19.20;99.90
17740;DHT22;8990;33.226;-97.150;2024-02-21T03:28:16;19.20;99.90
17740;DHT22;8990;33.226;-97.150;2024-02-21T03:30:45;19.20;99.90
17740;DHT22;8990;33.226;-97.150;2024-02-21T03:33:16;19.10;99.90
17740;DHT22;8990;33.226;-97.150;2024-02-21T03:35:45;19.10;99.90
17740;DHT22;8990;33.226;-97.150;2024-02-21T03:38:14;19.00;99.90
17740;DHT22;8990;33.226;-97.150;2024-02-21T03:40:43;19.00;99.90
17740;DHT22;8990;33.226;-97.150;2024-02-21T03:43:11;19.00;99.90
17740;DHT22;8990;33.226;-97.150;2024-02-21T03:45:40;19.00;99.90
17740;DHT22;8990;33.226;-97.150;2024-02-21T03:48:09;18.90;99.90
17740;DHT22;8990;33.226;-97.150;2024-02-21T03:50:40;18.90;99.90
17740;DHT22;8990;33.226;-97.150;2024-02-21T03:53:09;18.90;99.90
17740;DHT22;8990;33.226;-97.150;2024-02-21T03:55:37;18.90;99.90
17740;DHT22;8990;33.226;-97.150;2024-02-21T03:58:06;18.90;99.90
17740;DHT22;8990;33.226;-97.150;2024-02-21T04:00:35;18.90;99.90
17740;DHT22;8990;33.226;-97.150;2024-02-21T04:03:04;18.90;99.90
17740;DHT22;8990;33.226;-97.150;2024-02-21T04:05:33;18.80;99.90
17740;DHT22;8990;33.226;-97.150;2024-02-21T04:08:06;18.70;99.90
17740;DHT22;8990;33.226;-97.150;2024-02-21T04:10:35;18.80;99.90
17740;DHT22;8990;33.226;-97.150;2024-02-21T04:13:04;18.80;99.90
17740;DHT22;8990;33.226;-97.150;2024-02-21T04:15:34;18.70;99.90
17740;DHT22;8990;33.226;-97.150;2024-02-21T04:18:03;18.70;99.90
17740;DHT22;8990;33.226;-97.150;2024-02-21T04:20:32;18.60;99.90
17740;DHT22;8990;33.226;-97.150;2024-02-21T04:23:01;18.60;99.90
17740;DHT22;8990;33.226;-97.150;2024-02-21T04:25:32;18.60;99.90
17740;DHT22;8990;33.226;-97.150;2024-02-21T04:28:01;18.60;99.90
17740;DHT22;8990;33.226;-97.150;2024-02-21T04:30:29;18.50;99.90
17740;DHT22;8990;33.226;-97.150;2024-02-21T04:32:58;18.50;99.90
17740;DHT22;8990;33.226;-97.150;2024-02-21T04:35:27;18.40;99.90
17740;DHT22;8990;33.226;-97.150;2024-02-21T04:37:56;18.40;99.90
17740;DHT22;8990;33.226;-97.150;2024-02-21T04:40:25;18.40;99.90
17740;DHT22;8990;33.226;-97.150;2024-02-21T04:42:56;18.40;99.90
17740;DHT22;8990;33.226;-97.150;2024-02-21T04:45:26;18.40;99.90
17740;DHT22;8990;33.226;-97.150;2024-02-21T04:47:54;18.30;99.90
17740;DHT22;8990;33.226;-97.150;2024-02-21T04:50:24;18.30;99.90
17740;DHT22;8990;33.226;-97.150;2024-02-21T04:52:52;18.20;99.90
17740;DHT22;8990;33.226;-97.150;2024-02-21T04:55:21;18.20;99.90
17740;DHT22;8990;33.226;-97.150;2024-02-21T04:57:50;18.20;99.90
17740;DHT22;8990;33.226;-97.150;2024-02-21T05:00:22;18.20;99.90
17740;DHT22;8990;33.226;-97.150;2024-02-21T05:02:51;18.10;99.90
17740;DHT22;8990;33.226;-97.150;2024-02-21T05:05:19;18.20;99.90
17740;DHT22;8990;33.226;-97.150;2024-02-21T05:07:48;18.10;99.90
17740;DHT22;8990;33.226;-97.150;2024-02-21T05:10:17;18.10;99.90
17740;DHT22;8990;33.226;-97.150;2024-02-21T05:12:47;18.10;99.90
17740;DHT22;8990;33.226;-97.150;2024-02-21T05:22:40;18.10;99.90
17740;DHT22;8990;33.226;-97.150;2024-02-21T05:25:10;18.00;99.90
17740;DHT22;8990;33.226;-97.150;2024-02-21T05:27:39;18.00;99.90
17740;DHT22;8990;33.226;-97.150;2024-02-21T05:30:08;18.00;99.90
17740;DHT22;8990;33.226;-97.150;2024-02-21T05:32:37;17.90;99.90
17740;DHT22;8990;33.226;-97.150;2024-02-21T05:35:06;18.00;99.90
17740;DHT22;8990;33.226;-97.150;2024-02-21T05:37:35;17.90;99.90
17740;DHT22;8990;33.226;-97.150;2024-02-21T05:40:08;17.90;99.90
17740;DHT22;8990;33.226;-97.150;2024-02-21T05:42:39;17.90;99.90
17740;DHT22;8990;33.226;-97.150;2024-02-21T05:45:08;17.90;99.90
17740;DHT22;8990;33.226;-97.150;2024-02-21T05:47:37;17.90;99.90
17740;DHT22;8990;33.226;-97.150;2024-02-21T05:50:06;17.90;99.90
17740;DHT22;8990;33.226;-97.150;2024-02-21T05:52:35;17.80;99.90
17740;DHT22;8990;33.226;-97.150;2024-02-21T05:55:07;17.90;99.90
17740;DHT22;8990;33.226;-97.150;2024-02-21T05:57:37;17.80;99.90
17740;DHT22;8990;33.226;-97.150;2024-02-21T06:00:07;17.80;99.90
17740;DHT22;8990;33.226;-97.150;2024-02-21T06:02:42;17.80;99.90
17740;DHT22;8990;33.226;-97.150;2024-02-21T06:05:11;17.80;99.90
17740;DHT22;8990;33.226;-97.150;2024-02-21T06:07:40;17.70;99.90
17740;DHT22;8990;33.226;-97.150;2024-02-21T06:10:10;17.70;99.90
17740;DHT22;8990;33.226;-97.150;2024-02-21T06:12:39;17.70;99.90
17740;DHT22;8990;33.226;-97.150;2024-02-21T06:15:09;17.70;99.90
17740;DHT22;8990;33.226;-97.150;2024-02-21T06:17:38;17.70;99.90
17740;DHT22;8990;33.226;-97.150;2024-02-21T06:20:08;17.60;99.90
17740;DHT22;8990;33.226;-97.150;2024-02-21T06:22:37;17.60;99.90
17740;DHT22;8990;33.226;-97.150;2024-02-21T06:25:06;17.60;99.90
17740;DHT22;8990;33.226;-97.150;2024-02-21T06:27:37;17.60;99.90
17740;DHT22;8990;33.226;-97.150;2024-02-21T06:30:06;17.60;99.90
17740;DHT22;8990;33.226;-97.150;2024-02-21T06:32:36;17.60;99.90
17740;DHT22;8990;33.226;-97.150;2024-02-21T06:35:05;17.50;99.90
17740;DHT22;8990;33.226;-97.150;2024-02-21T06:37:34;17.50;99.90
17740;DHT22;8990;33.226;-97.150;2024-02-21T06:40:06;17.50;99.90
17740;DHT22;8990;33.226;-97.150;2024-02-21T06:42:37;17.50;99.90
17740;DHT22;8990;33.226;-97.150;2024-02-21T06:45:06;17.50;99.90
17740;DHT22;8990;33.226;-97.150;2024-02-21T06:47:35;17.50;99.90
17740;DHT22;8990;33.226;-97.150;2024-02-21T06:50:05;17.40;99.90
17740;DHT22;8990;33.226;-97.150;2024-02-21T06:52:34;17.40;99.90
17740;DHT22;8990;33.226;-97.150;2024-02-21T06:55:03;17.40;99.90
17740;DHT22;8990;33.226;-97.150;2024-02-21T06:57:32;17.40;99.90
17740;DHT22;8990;33.226;-97.150;2024-02-21T07:00:03;17.40;99.90
17740;DHT22;8990;33.226;-97.150;2024-02-21T07:02:34;17.40;99.90
17740;DHT22;8990;33.226;-97.150;2024-02-21T07:05:04;17.40;99.90
17740;DHT22;8990;33.226;-97.150;2024-02-21T07:07:33;17.30;99.90
17740;DHT22;8990;33.226;-97.150;2024-02-21T07:10:02;17.30;99.90
17740;DHT22;8990;33.226;-97.150;2024-02-21T07:12:31;17.30;99.90
17740;DHT22;8990;33.226;-97.150;2024-02-21T07:15:02;17.20;99.90
17740;DHT22;8990;33.226;-97.150;2024-02-21T07:17:31;17.20;99.90
17740;DHT22;8990;33.226;-97.150;2024-02-21T07:20:00;17.20;99.90
17740;DHT22;8990;33.226;-97.150;2024-02-21T07:22:28;17.10;99.90
17740;DHT22;8990;33.226;-97.150;2024-02-21T07:24:57;17.10;99.90
17740;DHT22;8990;33.226;-97.150;2024-02-21T07:27:26;17.10;99.90
17740;DHT22;8990;33.226;-97.150;2024-02-21T07:29:59;17.10;99.90
17740;DHT22;8990;33.226;-97.150;2024-02-21T07:32:29;17.00;99.90
17740;DHT22;8990;33.226;-97.150;2024-02-21T07:34:58;17.00;99.90
17740;DHT22;8990;33.226;-97.150;2024-02-21T07:37:27;16.90;99.90
17740;DHT22;8990;33.226;-97.150;2024-02-21T07:39:56;16.90;99.90
17740;DHT22;8990;33.226;-97.150;2024-02-21T07:42:25;16.90;99.90
17740;DHT22;8990;33.226;-97.150;2024-02-21T07:44:54;16.90;99.90
17740;DHT22;8990;33.226;-97.150;2024-02-21T07:47:24;16.80;99.90
17740;DHT22;8990;33.226;-97.150;2024-02-21T07:49:55;16.80;99.90
17740;DHT22;8990;33.226;-97.150;2024-02-21T07:52:24;16.80;99.90
17740;DHT22;8990;33.226;-97.150;2024-02-21T07:54:52;16.80;99.90
17740;DHT22;8990;33.226;-97.150;2024-02-21T07:57:22;16.80;99.90
17740;DHT22;8990;33.226;-97.150;2024-02-21T07:59:51;16.70;99.90
17740;DHT22;8990;33.226;-97.150;2024-02-21T08:02:20;16.70;99.90
17740;DHT22;8990;33.226;-97.150;2024-02-21T08:04:49;16.70;99.90
17740;DHT22;8990;33.226;-97.150;2024-02-21T08:07:19;16.70;99.90
17740;DHT22;8990;33.226;-97.150;2024-02-21T08:09:48;16.60;99.90
17740;DHT22;8990;33.226;-97.150;2024-02-21T08:12:17;16.60;99.90
17740;DHT22;8990;33.226;-97.150;2024-02-21T08:14:46;16.60;99.90
17740;DHT22;8990;33.226;-97.150;2024-02-21T08:17:15;16.60;99.90
17740;DHT22;8990;33.226;-97.150;2024-02-21T08:19:44;16.60;99.90
17740;DHT22;8990;33.226;-97.150;2024-02-21T08:22:13;16.60;99.90
17740;DHT22;8990;33.226;-97.150;2024-02-21T08:24:44;16.50;99.90
17740;DHT22;8990;33.226;-97.150;2024-02-21T08:27:13;16.50;99.90
17740;DHT22;8990;33.226;-97.150;2024-02-21T08:29:41;16.40;99.90
17740;DHT22;8990;33.226;-97.150;2024-02-21T08:32:10;16.40;99.90
17740;DHT22;8990;33.226;-97.150;2024-02-21T08:34:39;16.40;99.90
17740;DHT22;8990;33.226;-97.150;2024-02-21T08:37:08;16.40;99.90
17740;DHT22;8990;33.226;-97.150;2024-02-21T08:39:37;16.30;99.90
17740;DHT22;8990;33.226;-97.150;2024-02-21T08:42:08;16.20;99.90
17740;DHT22;8990;33.226;-97.150;2024-02-21T08:44:40;16.20;99.90
17740;DHT22;8990;33.226;-97.150;2024-02-21T08:47:10;16.20;99.90
17740;DHT22;8990;33.226;-97.150;2024-02-21T08:49:39;16.20;99.90
17740;DHT22;8990;33.226;-97.150;2024-02-21T08:52:08;16.20;99.90
17740;DHT22;8990;33.226;-97.150;2024-02-21T08:54:37;16.20;99.90
17740;DHT22;8990;33.226;-97.150;2024-02-21T08:57:06;16.10;99.90
17740;DHT22;8990;33.226;-97.150;2024-02-21T08:59:36;16.10;99.90
17740;DHT22;8990;33.226;-97.150;2024-02-21T09:02:05;16.10;99.90
17740;DHT22;8990;33.226;-97.150;2024-02-21T09:04:36;16.10;99.90
17740;DHT22;8990;33.226;-97.150;2024-02-21T09:07:05;16.10;99.90
17740;DHT22;8990;33.226;-97.150;2024-02-21T09:09:33;16.00;99.90
17740;DHT22;8990;33.226;-97.150;2024-02-21T09:12:03;16.00;99.90
17740;DHT22;8990;33.226;-97.150;2024-02-21T09:14:36;16.00;99.90
17740;DHT22;8990;33.226;-97.150;2024-02-21T09:17:06;16.00;99.90
17740;DHT22;8990;33.226;-97.150;2024-02-21T09:19:35;16.00;99.90
17740;DHT22;8990;33.226;-97.150;2024-02-21T09:22:05;15.90;99.90
17740;DHT22;8990;33.226;-97.150;2024-02-21T09:24:34;15.90;99.90
17740;DHT22;8990;33.226;-97.150;2024-02-21T09:27:03;15.90;99.90
17740;DHT22;8990;33.226;-97.150;2024-02-21T09:29:32;15.90;99.90
17740;DHT22;8990;33.226;-97.150;2024-02-21T09:32:03;15.90;99.90
17740;DHT22;8990;33.226;-97.150;2024-02-21T09:34:32;15.90;99.90
17740;DHT22;8990;33.226;-97.150;2024-02-21T09:37:01;15.90;99.90
17740;DHT22;8990;33.226;-97.150;2024-02-21T09:39:30;15.80;99.90
17740;DHT22;8990;33.226;-97.150;2024-02-21T09:42:02;15.80;99.90
17740;DHT22;8990;33.226;-97.150;2024-02-21T09:44:37;15.80;99.90
17740;DHT22;8990;33.226;-97.150;2024-02-21T09:47:12;15.80;99.90
17740;DHT22;8990;33.226;-97.150;2024-02-21T09:49:43;15.70;99.90
17740;DHT22;8990;33.226;-97.150;2024-02-21T09:52:12;15.70;99.90
17740;DHT22;8990;33.226;-97.150;2024-02-21T09:54:43;15.70;99.90
17740;DHT22;8990;33.226;-97.150;2024-02-21T09:57:14;15.70;99.90
17740;DHT22;8990;33.226;-97.150;2024-02-21T09:59:44;15.60;99.90
17740;DHT22;8990;33.226;-97.150;2024-02-21T10:02:14;15.70;99.90
17740;DHT22;8990;33.226;-97.150;2024-02-21T10:04:44;15.70;99.90
17740;DHT22;8990;33.226;-97.150;2024-02-21T10:07:13;15.60;99.90
17740;DHT22;8990;33.226;-97.150;2024-02-21T10:09:42;15.60;99.90
17740;DHT22;8990;33.226;-97.150;2024-02-21T10:12:14;15.60;99.90
17740;DHT22;8990;33.226;-97.150;2024-02-21T10:14:46;15.60;99.90
17740;DHT22;8990;33.226;-97.150;2024-02-21T10:17:18;15.50;99.90
17740;DHT22;8990;33.226;-97.150;2024-02-21T10:19:47;15.40;99.90
17740;DHT22;8990;33.226;-97.150;2024-02-21T10:22:18;15.40;99.90
17740;DHT22;8990;33.226;-97.150;2024-02-21T10:24:47;15.40;99.90
17740;DHT22;8990;33.226;-97.150;2024-02-21T10:27:16;15.40;99.90
17740;DHT22;8990;33.226;-97.150;2024-02-21T10:29:49;15.40;99.90
17740;DHT22;8990;33.226;-97.150;2024-02-21T10:32:21;15.30;99.90
17740;DHT22;8990;33.226;-97.150;2024-02-21T10:34:50;15.30;99.90
17740;DHT22;8990;33.226;-97.150;2024-02-21T10:37:21;15.30;99.90
17740;DHT22;8990;33.226;-97.150;2024-02-21T10:39:50;15.30;99.90
17740;DHT22;8990;33.226;-97.150;2024-02-21T10:42:21;15.20;99.90
17740;DHT22;8990;33.226;-97.150;2024-02-21T10:44:51;15.20;99.90
17740;DHT22;8990;33.226;-97.150;2024-02-21T10:47:23;15.20;99.90
17740;DHT22;8990;33.226;-97.150;2024-02-21T10:50:00;15.20;99.90
17740;DHT22;8990;33.226;-97.150;2024-02-21T10:52:36;15.20;99.90
17740;DHT22;8990;33.226;-97.150;2024-02-21T10:55:12;15.20;99.90
17740;DHT22;8990;33.226;-97.150;2024-02-21T10:57:43;15.10;99.90
17740;DHT22;8990;33.226;-97.150;2024-02-21T11:00:15;15.10;99.90
17740;DHT22;8990;33.226;-97.150;2024-02-21T11:02:48;15.10;99.90
17740;DHT22;8990;33.226;-97.150;2024-02-21T11:05:17;15.10;99.90
17740;DHT22;8990;33.226;-97.150;2024-02-21T11:07:47;15.10;99.90
17740;DHT22;8990;33.226;-97.150;2024-02-21T11:10:24;15.00;99.90
17740;DHT22;8990;33.226;-97.150;2024-02-21T11:12:53;15.00;99.90
17740;DHT22;8990;33.226;-97.150;2024-02-21T11:15:26;14.90;99.90
17740;DHT22;8990;33.226;-97.150;2024-02-21T11:17:57;14.90;99.90
17740;DHT22;8990;33.226;-97.150;2024-02-21T11:20:33;14.90;99.90
17740;DHT22;8990;33.226;-97.150;2024-02-21T11:23:02;14.80;99.90
17740;DHT22;8990;33.226;-97.150;2024-02-21T11:25:31;14.80;99.90
17740;DHT22;8990;33.226;-97.150;2024-02-21T11:28:01;14.80;99.90
17740;DHT22;8990;33.226;-97.150;2024-02-21T11:30:31;14.80;99.90
17740;DHT22;8990;33.226;-97.150;2024-02-21T11:33:03;14.70;99.90
17740;DHT22;8990;33.226;-97.150;2024-02-21T11:35:32;14.70;99.90
17740;DHT22;8990;33.226;-97.150;2024-02-21T11:38:09;14.70;99.90
17740;DHT22;8990;33.226;-97.150;2024-02-21T11:40:41;14.60;99.90
17740;DHT22;8990;33.226;-97.150;2024-02-21T11:43:10;14.60;99.90
17740;DHT22;8990;33.226;-97.150;2024-02-21T11:45:39;14.70;99.90
17740;DHT22;8990;33.226;-97.150;2024-02-21T11:48:10;14.60;99.90
17740;DHT22;8990;33.226;-97.150;2024-02-21T11:50:39;14.70;99.90
17740;DHT22;8990;33.226;-97.150;2024-02-21T11:53:07;14.60;99.90
17740;DHT22;8990;33.226;-97.150;2024-02-21T11:55:37;14.60;99.90
17740;DHT22;8990;33.226;-97.150;2024-02-21T11:58:06;14.60;99.90
17740;DHT22;8990;33.226;-97.150;2024-02-21T12:00:35;14.60;99.90
17740;DHT22;8990;33.226;-97.150;2024-02-21T12:03:05;14.60;99.90
17740;DHT22;8990;33.226;-97.150;2024-02-21T12:05:36;14.50;99.90
17740;DHT22;8990;33.226;-97.150;2024-02-21T12:08:05;14.50;99.90
17740;DHT22;8990;33.226;-97.150;2024-02-21T12:10:35;14.50;99.90
17740;DHT22;8990;33.226;-97.150;2024-02-21T12:13:08;14.50;99.90
17740;DHT22;8990;33.226;-97.150;2024-02-21T12:15:39;14.40;99.90
17740;DHT22;8990;33.226;-97.150;2024-02-21T12:18:10;14.50;99.90
17740;DHT22;8990;33.226;-97.150;2024-02-21T12:20:41;14.50;99.90
17740;DHT22;8990;33.226;-97.150;2024-02-21T12:23:11;14.40;99.90
17740;DHT22;8990;33.226;-97.150;2024-02-21T12:25:40;14.40;99.90
17740;DHT22;8990;33.226;-97.150;2024-02-21T12:28:08;14.40;99.90
17740;DHT22;8990;33.226;-97.150;2024-02-21T12:30:37;14.40;99.90
17740;DHT22;8990;33.226;-97.150;2024-02-21T12:33:07;14.30;99.90
17740;DHT22;8990;33.226;-97.150;2024-02-21T12:35:36;14.30;99.90
17740;DHT22;8990;33.226;-97.150;2024-02-21T12:38:06;14.30;99.90
17740;DHT22;8990;33.226;-97.150;2024-02-21T12:40:36;14.30;99.90
17740;DHT22;8990;33.226;-97.150;2024-02-21T12:43:04;14.20;99.90
17740;DHT22;8990;33.226;-97.150;2024-02-21T12:45:33;14.20;99.90
17740;DHT22;8990;33.226;-97.150;2024-02-21T12:48:03;14.20;99.90
17740;DHT22;8990;33.226;-97.150;2024-02-21T12:50:32;14.20;99.90
17740;DHT22;8990;33.226;-97.150;2024-02-21T12:53:01;14.20;99.90
17740;DHT22;8990;33.226;-97.150;2024-02-21T12:55:31;14.10;99.90
17740;DHT22;8990;33.226;-97.150;2024-02-21T12:58:04;14.10;99.90
17740;DHT22;8990;33.226;-97.150;2024-02-21T13:00:33;14.00;99.90
17740;DHT22;8990;33.226;-97.150;2024-02-21T13:03:03;14.10;99.90
17740;DHT22;8990;33.226;-97.150;2024-02-21T13:05:32;14.00;99.90
17740;DHT22;8990;33.226;-97.150;2024-02-21T13:08:01;14.00;99.90
17740;DHT22;8990;33.226;-97.150;2024-02-21T13:10:32;14.00;99.90
17740;DHT22;8990;33.226;-97.150;2024-02-21T13:13:02;13.90;99.90
17740;DHT22;8990;33.226;-97.150;2024-02-21T13:15:30;13.90;99.90
17740;DHT22;8990;33.226;-97.150;2024-02-21T13:17:59;13.90;99.90
17740;DHT22;8990;33.226;-97.150;2024-02-21T13:20:28;13.90;99.90
17740;DHT22;8990;33.226;-97.150;2024-02-21T13:22:57;13.90;99.90
17740;DHT22;8990;33.226;-97.150;2024-02-21T13:25:26;13.90;99.90
17740;DHT22;8990;33.226;-97.150;2024-02-21T13:27:56;13.90;99.90
17740;DHT22;8990;33.226;-97.150;2024-02-21T13:30:25;14.00;99.90
17740;DHT22;8990;33.226;-97.150;2024-02-21T13:32:55;14.00;99.90
17740;DHT22;8990;33.226;-97.150;2024-02-21T13:35:24;14.00;99.90
17740;DHT22;8990;33.226;-97.150;2024-02-21T13:37:53;14.10;99.90
17740;DHT22;8990;33.226;-97.150;2024-02-21T13:40:22;14.00;99.90
17740;DHT22;8990;33.226;-97.150;2024-02-21T13:42:52;14.10;99.90
17740;DHT22;8990;33.226;-97.150;2024-02-21T13:45:23;14.20;99.90
17740;DHT22;8990;33.226;-97.150;2024-02-21T13:47:52;14.20;99.90
17740;DHT22;8990;33.226;-97.150;2024-02-21T13:50:23;14.30;99.90
17740;DHT22;8990;33.226;-97.150;2024-02-21T13:52:55;14.30;99.90
17740;DHT22;8990;33.226;-97.150;2024-02-21T13:55:24;14.40;99.90
17740;DHT22;8990;33.226;-97.150;2024-02-21T13:57:54;14.40;99.90
17740;DHT22;8990;33.226;-97.150;2024-02-21T14:00:24;14.50;99.90
17740;DHT22;8990;33.226;-97.150;2024-02-21T14:02:54;14.60;99.90
17740;DHT22;8990;33.226;-97.150;2024-02-21T14:05:25;14.60;99.90
17740;DHT22;8990;33.226;-97.150;2024-02-21T14:07:54;14.60;99.90
17740;DHT22;8990;33.226;-97.150;2024-02-21T14:10:23;14.70;99.90
17740;DHT22;8990;33.226;-97.150;2024-02-21T14:12:51;14.80;99.90
17740;DHT22;8990;33.226;-97.150;2024-02-21T14:15:20;14.80;99.90
17740;DHT22;8990;33.226;-97.150;2024-02-21T14:17:51;14.80;99.90
17740;DHT22;8990;33.226;-97.150;2024-02-21T14:20:20;14.90;99.90
17740;DHT22;8990;33.226;-97.150;2024-02-21T14:22:49;15.00;99.90
17740;DHT22;8990;33.226;-97.150;2024-02-21T14:25:18;15.00;99.90
17740;DHT22;8990;33.226;-97.150;2024-02-21T14:27:47;15.20;99.90
17740;DHT22;8990;33.226;-97.150;2024-02-21T14:30:16;15.30;99.90
17740;DHT22;8990;33.226;-97.150;2024-02-21T14:32:45;15.30;99.90
17740;DHT22;8990;33.226;-97.150;2024-02-21T14:35:15;15.40;99.90
17740;DHT22;8990;33.226;-97.150;2024-02-21T14:37:44;15.50;99.90
17740;DHT22;8990;33.226;-97.150;2024-02-21T14:40:15;15.60;99.90
17740;DHT22;8990;33.226;-97.150;2024-02-21T14:42:46;15.70;99.90
17740;DHT22;8990;33.226;-97.150;2024-02-21T14:45:16;15.90;99.90
17740;DHT22;8990;33.226;-97.150;2024-02-21T14:47:44;16.00;99.90
17740;DHT22;8990;33.226;-97.150;2024-02-21T14:50:16;16.10;99.90
17740;DHT22;8990;33.226;-97.150;2024-02-21T14:52:45;16.20;99.90
17740;DHT22;8990;33.226;-97.150;2024-02-21T14:55:14;16.20;99.90
17740;DHT22;8990;33.226;-97.150;2024-02-21T14:57:43;16.30;99.90
17740;DHT22;8990;33.226;-97.150;2024-02-21T15:00:13;16.40;99.90
17740;DHT22;8990;33.226;-97.150;2024-02-21T15:02:42;16.50;99.90
17740;DHT22;8990;33.226;-97.150;2024-02-21T15:05:11;16.60;99.90
17740;DHT22;8990;33.226;-97.150;2024-02-21T15:07:42;16.70;99.90
17740;DHT22;8990;33.226;-97.150;2024-02-21T15:10:11;16.70;99.90
17740;DHT22;8990;33.226;-97.150;2024-02-21T15:12:40;16.80;99.90
17740;DHT22;8990;33.226;-97.150;2024-02-21T15:15:10;16.90;99.90
17740;DHT22;8990;33.226;-97.150;2024-02-21T15:17:39;17.10;99.90
17740;DHT22;8990;33.226;-97.150;2024-02-21T15:20:09;17.20;99.90
17740;DHT22;8990;33.226;-97.150;2024-02-21T15:22:38;17.30;99.90
17740;DHT22;8990;33.226;-97.150;2024-02-21T15:25:09;17.30;99.90
17740;DHT22;8990;33.226;-97.150;2024-02-21T15:27:42;17.50;99.90
17740;DHT22;8990;33.226;-97.150;2024-02-21T15:30:12;17.60;99.90
17740;DHT22;8990;33.226;-97.150;2024-02-21T15:32:41;17.70;99.90
17740;DHT22;8990;33.226;-97.150;2024-02-21T15:35:11;17.80;99.90
17740;DHT22;8990;33.226;-97.150;2024-02-21T15:37:40;17.90;99.90